Time;durP1;ratioP1;P1;durP2;ratioP2;P2;SDS_P1;SDS_P2;PMS_P1;PMS_P2;Temp;Humidity;BMP_temperature;BMP_pressure;BME280_temperature;BME280_humidity;BME280_pressure;Samples;Min_cycle;Max_cycle;Signal;HPM_P1;HPM_P2
2022/01/04 00:00:34;;;;;;;8.63;2.00;;;26.00;99.90;;;;;;5070965;28;20684;-77
2022/01/04 00:03:06;;;;;;;12.00;1.98;;;26.00;99.90;;;;;;5072271;28;20200;-76
2022/01/04 00:05:37;;;;;;;9.93;1.60;;;25.90;99.90;;;;;;5066757;28;20217;-76
2022/01/04 00:08:10;;;;;;;10.50;1.77;;;25.80;99.90;;;;;;5058170;28;20250;-78
2022/01/04 00:10:42;;;;;;;9.10;1.58;;;26.10;99.90;;;;;;5068054;28;20224;-79
2022/01/04 00:13:25;;;;;;;9.70;1.90;;;26.10;99.90;;;;;;5075038;28;20602;-78
2022/01/04 00:15:56;;;;;;;5.53;1.67;;;25.90;99.90;;;;;;5062707;28;20205;-79
2022/01/04 00:18:29;;;;;;;10.10;1.80;;;25.70;99.90;;;;;;5055279;28;20226;-78
2022/01/04 00:21:00;;;;;;;7.07;1.58;;;26.00;99.90;;;;;;5064425;28;20676;-79
2022/01/04 00:23:30;;;;;;;10.43;1.77;;;25.90;99.90;;;;;;5068630;28;20665;-78
2022/01/04 00:26:01;;;;;;;9.75;1.90;;;25.80;99.90;;;;;;5067915;28;20208;-78
2022/01/04 00:28:32;;;;;;;8.43;2.28;;;25.60;99.90;;;;;;5070046;28;20221;-79
2022/01/04 00:31:02;;;;;;;5.60;1.85;;;25.60;99.90;;;;;;5066865;28;20193;-77
2022/01/04 00:33:36;;;;;;;7.93;1.80;;;25.70;99.90;;;;;;5071967;28;20675;-78
2022/01/04 00:36:07;;;;;;;11.18;2.03;;;25.80;99.90;;;;;;5064202;28;20197;-78
2022/01/04 00:38:38;;;;;;;10.82;2.00;;;25.80;99.90;;;;;;5061996;28;20660;-77
2022/01/04 00:41:09;;;;;;;8.60;1.95;;;25.70;99.90;;;;;;5073112;28;20247;-78
2022/01/04 00:43:39;;;;;;;7.57;1.65;;;25.90;99.90;;;;;;5072137;28;20200;-79
2022/01/04 00:46:15;;;;;;;10.25;1.75;;;26.40;99.90;;;;;;5066222;28;20201;-77
2022/01/04 00:51:51;;;;;;;9.13;1.70;;;27.20;99.90;;;;;;4986031;28;20199;-78
2022/01/04 00:54:22;;;;;;;9.65;1.90;;;27.00;99.90;;;;;;4991200;28;20206;-77
2022/01/04 00:56:53;;;;;;;9.43;1.80;;;27.00;99.90;;;;;;5029903;28;21142;-78
2022/01/04 00:59:24;;;;;;;11.48;2.10;;;27.10;99.90;;;;;;5072176;28;20200;-78
2022/01/04 01:01:54;;;;;;;7.15;1.67;;;27.30;99.90;;;;;;5063872;28;20193;-78
2022/01/04 01:04:27;;;;;;;10.00;1.90;;;27.60;99.90;;;;;;5073181;28;20239;-77
2022/01/04 01:06:58;;;;;;;9.98;1.70;;;27.90;99.90;;;;;;5069623;28;20205;-76
2022/01/04 01:09:33;;;;;;;9.65;1.70;;;27.80;99.90;;;;;;5071536;28;20201;-78
2022/01/04 01:12:03;;;;;;;11.60;1.75;;;27.50;99.90;;;;;;5066794;28;20570;-77
2022/01/04 01:14:34;;;;;;;9.27;1.92;;;27.40;99.90;;;;;;5064133;28;20594;-78
2022/01/04 01:17:05;;;;;;;11.05;1.70;;;27.00;99.90;;;;;;5070501;28;20193;-79
2022/01/04 01:19:38;;;;;;;12.68;1.92;;;27.10;99.90;;;;;;5077826;28;20545;-78
2022/01/04 01:22:09;;;;;;;8.88;1.98;;;27.20;99.90;;;;;;5070471;28;20196;-79
2022/01/04 01:24:39;;;;;;;5.22;1.55;;;27.30;99.90;;;;;;5074086;28;20208;-76
2022/01/04 01:27:10;;;;;;;6.13;1.67;;;27.20;99.90;;;;;;5067114;28;20275;-79
2022/01/04 01:29:41;;;;;;;10.23;2.05;;;27.10;99.90;;;;;;5070599;28;20193;-80
2022/01/04 01:32:12;;;;;;;9.00;1.55;;;27.00;99.90;;;;;;5074772;28;20204;-79
2022/01/04 01:34:45;;;;;;;7.82;1.70;;;26.90;99.90;;;;;;5069774;28;20594;-79
2022/01/04 01:37:16;;;;;;;5.68;1.40;;;26.80;99.90;;;;;;5073916;28;20618;-79
2022/01/04 01:39:47;;;;;;;7.20;1.60;;;26.90;99.90;;;;;;5065358;28;20755;-80
2022/01/04 01:42:18;;;;;;;10.50;2.00;;;26.90;99.90;;;;;;5066049;28;20291;-79
2022/01/04 01:44:48;;;;;;;11.90;1.90;;;26.80;99.90;;;;;;5065752;28;20224;-79
2022/01/04 01:47:19;;;;;;;8.43;1.70;;;26.80;99.90;;;;;;5065936;28;20195;-78
2022/01/04 01:49:52;;;;;;;9.77;1.77;;;26.70;99.90;;;;;;5064315;28;20208;-78
2022/01/04 01:52:23;;;;;;;8.63;1.48;;;26.50;99.90;;;;;;5065106;28;20211;-80
2022/01/04 01:54:53;;;;;;;10.63;1.60;;;26.30;99.90;;;;;;5067904;28;20205;-79
2022/01/04 01:57:25;;;;;;;9.30;1.60;;;26.20;99.90;;;;;;5064931;28;20201;-77
2022/01/04 01:59:56;;;;;;;10.48;1.60;;;26.10;99.90;;;;;;5066351;28;20189;-79
2022/01/04 02:02:27;;;;;;;10.43;1.70;;;26.10;99.90;;;;;;5064669;28;20197;-77
2022/01/04 02:04:59;;;;;;;7.60;1.77;;;26.10;99.90;;;;;;5064261;28;20217;-76
2022/01/04 02:07:31;;;;;;;7.47;1.80;;;26.00;99.90;;;;;;5063063;28;20879;-78
2022/01/04 02:10:05;;;;;;;11.02;1.88;;;26.00;99.90;;;;;;5064235;28;20606;-79
2022/01/04 02:12:36;;;;;;;9.30;1.80;;;26.00;99.90;;;;;;5063838;28;20188;-79
2022/01/04 02:15:08;;;;;;;7.50;1.67;;;26.20;99.90;;;;;;5073109;28;20606;-79
2022/01/04 02:17:39;;;;;;;9.00;1.92;;;26.40;99.90;;;;;;5062915;28;20200;-79
2022/01/04 02:20:13;;;;;;;8.80;1.70;;;26.50;99.90;;;;;;5072674;28;20246;-79
2022/01/04 02:22:44;;;;;;;11.45;1.48;;;26.50;99.90;;;;;;5073440;28;20900;-79
2022/01/04 02:25:15;;;;;;;12.35;2.08;;;26.30;99.90;;;;;;5073393;28;20216;-78
2022/01/04 02:27:46;;;;;;;7.00;1.63;;;26.30;99.90;;;;;;5073095;28;20217;-79
2022/01/04 02:30:18;;;;;;;10.77;1.83;;;26.30;99.90;;;;;;5073358;28;20667;-79
2022/01/04 02:32:50;;;;;;;9.40;2.00;;;26.30;99.90;;;;;;5073292;28;20219;-79
2022/01/04 02:35:25;;;;;;;11.95;2.08;;;26.50;99.90;;;;;;5073100;28;20201;-79
2022/01/04 02:37:57;;;;;;;11.75;2.08;;;26.50;99.90;;;;;;5073491;28;20553;-80
2022/01/04 02:40:28;;;;;;;9.75;1.98;;;26.40;99.90;;;;;;5073226;28;20189;-81
2022/01/04 02:42:59;;;;;;;7.15;1.63;;;26.30;99.90;;;;;;5073308;28;20197;-80
2022/01/04 02:45:30;;;;;;;9.10;1.75;;;26.50;99.90;;;;;;5073133;28;20231;-79
2022/01/04 02:48:01;;;;;;;6.82;1.52;;;26.80;99.90;;;;;;5073204;28;20189;-79
2022/01/04 02:50:33;;;;;;;10.80;1.75;;;27.00;99.90;;;;;;5072714;28;20200;-79
2022/01/04 02:53:04;;;;;;;7.35;1.75;;;27.00;99.90;;;;;;5073059;28;20203;-79
2022/01/04 02:55:35;;;;;;;10.63;1.75;;;27.00;99.90;;;;;;5072689;28;20640;-80
2022/01/04 02:58:05;;;;;;;10.15;2.03;;;26.90;99.90;;;;;;5073055;28;20555;-79
2022/01/04 03:00:36;;;;;;;9.10;1.50;;;27.00;99.90;;;;;;5072896;28;20193;-77
2022/01/04 03:03:08;;;;;;;7.50;1.48;;;27.10;99.90;;;;;;5072738;28;20216;-80
2022/01/04 03:05:40;;;;;;;9.35;1.50;;;27.00;99.90;;;;;;5072831;28;20216;-78
2022/01/04 03:08:11;;;;;;;9.38;1.50;;;27.10;99.90;;;;;;5072380;28;20196;-80
2022/01/04 03:10:42;;;;;;;5.50;1.35;;;27.00;99.90;;;;;;5072769;28;20254;-79
2022/01/04 03:13:13;;;;;;;8.40;1.75;;;26.70;99.90;;;;;;5072480;28;20240;-77
2022/01/04 03:15:44;;;;;;;9.68;1.50;;;26.60;99.90;;;;;;5072883;28;20215;-75
2022/01/04 03:18:15;;;;;;;9.52;1.70;;;26.60;99.90;;;;;;5072505;28;20211;-77
2022/01/04 03:20:47;;;;;;;9.38;1.73;;;26.40;99.90;;;;;;5072768;28;20563;-79
2022/01/04 03:23:18;;;;;;;6.70;1.38;;;26.30;99.90;;;;;;5072719;28;20185;-76
2022/01/04 03:25:49;;;;;;;10.32;1.50;;;26.40;99.90;;;;;;5072703;28;20220;-78
2022/01/04 03:28:23;;;;;;;6.95;1.60;;;26.50;99.90;;;;;;5059698;28;20225;-78
2022/01/04 03:30:54;;;;;;;9.57;1.63;;;26.40;99.90;;;;;;5052714;28;20203;-78
2022/01/04 03:33:24;;;;;;;8.98;1.67;;;26.30;99.90;;;;;;5052283;28;20190;-78
2022/01/04 03:35:57;;;;;;;5.50;1.45;;;26.20;99.90;;;;;;5052578;28;20625;-82
2022/01/04 03:38:28;;;;;;;8.80;1.40;;;26.10;99.90;;;;;;5071181;28;20193;-79
2022/01/04 03:40:59;;;;;;;8.82;1.48;;;26.20;99.90;;;;;;5076429;28;20247;-79
2022/01/04 03:43:29;;;;;;;6.53;1.45;;;26.20;99.90;;;;;;5076315;28;20188;-77
2022/01/04 03:46:00;;;;;;;8.30;1.63;;;26.20;99.90;;;;;;5076280;28;20625;-77
2022/01/04 03:48:31;;;;;;;7.20;1.65;;;26.10;99.90;;;;;;5076165;28;20196;-77
2022/01/04 03:51:03;;;;;;;7.25;1.63;;;26.20;99.90;;;;;;5076146;28;20207;-78
2022/01/04 03:53:34;;;;;;;5.28;1.40;;;26.40;99.90;;;;;;5076033;28;20201;-78
2022/01/04 03:56:05;;;;;;;8.32;1.70;;;26.50;99.90;;;;;;5076218;28;20215;-77
2022/01/04 03:58:36;;;;;;;9.55;1.77;;;26.50;99.90;;;;;;5076161;28;20192;-77
2022/01/04 04:01:07;;;;;;;5.75;1.27;;;26.40;99.90;;;;;;5075897;28;20189;-79
2022/01/04 04:03:37;;;;;;;8.48;2.00;;;26.40;99.90;;;;;;5075915;28;20200;-79
2022/01/04 04:06:10;;;;;;;8.60;1.80;;;26.30;99.90;;;;;;5075800;28;20213;-77
2022/01/04 04:08:41;;;;;;;7.43;1.60;;;26.30;99.90;;;;;;5075508;28;20735;-76
2022/01/04 04:11:13;;;;;;;7.30;1.58;;;26.30;99.90;;;;;;5075851;28;20274;-79
2022/01/04 04:13:43;;;;;;;10.27;1.70;;;26.30;99.90;;;;;;5075495;28;20233;-79
2022/01/04 04:16:14;;;;;;;9.07;1.63;;;26.30;99.90;;;;;;5075458;28;20193;-77
2022/01/04 04:18:45;;;;;;;9.43;2.33;;;26.30;99.90;;;;;;5075583;28;20200;-77
2022/01/04 04:21:18;;;;;;;10.15;1.60;;;26.10;99.90;;;;;;5075613;28;20193;-79
2022/01/04 04:23:48;;;;;;;9.30;1.50;;;26.00;99.90;;;;;;5075647;28;20254;-77
2022/01/04 04:26:19;;;;;;;9.18;1.48;;;25.90;99.90;;;;;;5075370;28;20289;-77
2022/01/04 04:28:50;;;;;;;9.05;1.65;;;25.90;99.90;;;;;;5075468;28;20536;-79
2022/01/04 04:31:21;;;;;;;7.13;1.33;;;25.90;99.90;;;;;;5075389;28;20206;-78
2022/01/04 04:33:52;;;;;;;7.20;1.60;;;25.90;99.90;;;;;;5075485;28;20193;-78
2022/01/04 04:36:24;;;;;;;5.82;1.60;;;26.00;99.90;;;;;;5075111;28;20193;-79
2022/01/04 04:38:55;;;;;;;5.72;1.27;;;26.10;99.90;;;;;;5070681;28;20208;-80
2022/01/04 04:41:26;;;;;;;8.80;1.60;;;26.20;99.90;;;;;;5055377;28;20260;-78
2022/01/04 04:43:56;;;;;;;8.57;1.65;;;26.30;99.90;;;;;;5070667;28;20204;-78
2022/01/04 04:46:27;;;;;;;7.43;1.58;;;26.20;99.90;;;;;;5074988;28;20225;-79
2022/01/04 04:48:59;;;;;;;10.13;1.50;;;26.10;99.90;;;;;;5074684;28;20250;-78
2022/01/04 04:51:32;;;;;;;6.18;1.35;;;25.90;99.90;;;;;;5074594;28;20247;-79
2022/01/04 04:54:02;;;;;;;9.52;1.63;;;25.90;99.90;;;;;;5075048;28;20199;-79
2022/01/04 04:56:34;;;;;;;12.07;1.40;;;25.90;99.90;;;;;;5074926;28;20185;-78
2022/01/04 04:59:05;;;;;;;7.32;1.48;;;25.80;99.90;;;;;;5074825;28;20587;-79
2022/01/04 05:01:35;;;;;;;7.38;1.90;;;25.70;99.90;;;;;;5074850;28;20193;-78
2022/01/04 05:04:06;;;;;;;7.20;1.45;;;25.70;99.90;;;;;;5074921;28;20185;-80
2022/01/04 05:06:39;;;;;;;7.47;1.65;;;25.70;99.90;;;;;;5074767;28;20216;-78
2022/01/04 05:09:10;;;;;;;7.18;1.30;;;25.90;99.90;;;;;;5074915;28;20272;-78
2022/01/04 05:11:40;;;;;;;8.00;1.67;;;26.10;99.90;;;;;;5074694;28;20192;-76
2022/01/04 05:14:11;;;;;;;7.38;1.40;;;26.20;99.90;;;;;;5073695;28;20254;-79
2022/01/04 05:16:42;;;;;;;7.90;1.40;;;26.20;99.90;;;;;;5069939;28;20678;-78
2022/01/04 05:19:12;;;;;;;8.73;1.38;;;26.10;99.90;;;;;;5074632;28;20189;-77
2022/01/04 05:21:45;;;;;;;6.40;1.38;;;26.00;99.90;;;;;;5074680;28;20189;-78
2022/01/04 05:24:15;;;;;;;9.20;1.38;;;25.90;99.90;;;;;;5074487;28;20197;-77
2022/01/04 05:26:49;;;;;;;6.32;1.48;;;25.90;99.90;;;;;;5074115;28;20247;-80
2022/01/04 05:29:20;;;;;;;8.52;1.42;;;26.00;99.90;;;;;;5074295;28;20563;-78
2022/01/04 05:31:51;;;;;;;6.50;1.42;;;26.10;99.90;;;;;;5074342;28;20185;-78
2022/01/04 05:34:21;;;;;;;10.38;1.92;;;26.10;99.90;;;;;;5074236;28;20189;-78
2022/01/04 05:36:54;;;;;;;7.35;1.52;;;26.20;99.90;;;;;;5074269;28;20204;-77
2022/01/04 05:39:25;;;;;;;6.57;1.25;;;26.30;99.90;;;;;;5073916;28;20189;-82
2022/01/04 05:41:55;;;;;;;11.65;1.40;;;26.40;99.90;;;;;;5074173;28;20283;-80
2022/01/04 05:44:26;;;;;;;7.40;1.40;;;26.50;99.90;;;;;;5073903;28;20242;-80
2022/01/04 05:46:57;;;;;;;8.07;1.45;;;26.60;99.90;;;;;;5073941;28;20213;-77
2022/01/04 05:49:27;;;;;;;10.68;1.20;;;26.60;99.90;;;;;;5074061;28;20208;-79
2022/01/04 05:52:00;;;;;;;7.65;1.30;;;26.60;99.90;;;;;;5074043;28;20188;-78
2022/01/04 05:54:30;;;;;;;6.10;1.30;;;26.70;99.90;;;;;;5074023;28;20235;-79
2022/01/04 05:57:01;;;;;;;6.50;1.25;;;26.60;99.90;;;;;;5073794;28;20655;-77
2022/01/04 05:59:32;;;;;;;5.18;1.30;;;26.50;99.90;;;;;;5073835;28;20556;-78
2022/01/04 06:02:02;;;;;;;8.63;1.20;;;26.60;99.90;;;;;;5073700;28;20185;-78
2022/01/04 06:04:33;;;;;;;5.68;1.30;;;26.60;99.90;;;;;;5073697;28;20185;-77
2022/01/04 06:07:06;;;;;;;7.20;1.35;;;26.50;99.90;;;;;;5073367;28;20247;-77
2022/01/04 06:09:43;;;;;;;7.57;1.20;;;26.40;99.90;;;;;;5073391;28;20189;-76
2022/01/04 06:15:02;;;;;;;6.93;1.33;;;26.40;99.90;;;;;;5073510;28;20327;-79
2022/01/04 06:17:34;;;;;;;6.75;1.10;;;26.40;99.90;;;;;;5073449;28;20197;-77
2022/01/04 06:20:07;;;;;;;7.18;1.25;;;26.50;99.90;;;;;;5073649;28;20238;-78
2022/01/04 06:22:40;;;;;;;10.73;1.60;;;26.50;99.90;;;;;;5073311;28;20196;-77
2022/01/04 06:25:14;;;;;;;6.82;1.33;;;26.40;99.90;;;;;;5064762;28;20576;-77
2022/01/04 06:27:46;;;;;;;4.07;1.05;;;26.50;99.90;;;;;;5073105;28;20217;-77
2022/01/04 06:30:18;;;;;;;6.05;1.00;;;26.60;99.90;;;;;;5073835;28;20204;-77
2022/01/04 06:32:50;;;;;;;7.10;1.35;;;26.60;99.90;;;;;;5073412;28;20215;-77
2022/01/04 06:35:20;;;;;;;4.80;1.20;;;26.50;99.90;;;;;;5073373;28;20193;-77
2022/01/04 06:37:53;;;;;;;4.55;1.15;;;26.50;99.90;;;;;;5073269;28;20247;-77
2022/01/04 06:40:24;;;;;;;7.38;1.40;;;26.50;99.90;;;;;;5072967;28;20208;-76
2022/01/04 06:42:54;;;;;;;4.95;1.02;;;26.40;99.90;;;;;;5072899;28;20189;-78
2022/01/04 06:45:25;;;;;;;5.43;1.40;;;26.40;99.90;;;;;;5053200;28;20193;-78
2022/01/04 06:47:57;;;;;;;5.30;1.10;;;26.40;99.90;;;;;;5053179;28;20236;-78
2022/01/04 06:50:28;;;;;;;5.38;1.38;;;26.40;99.90;;;;;;5053051;28;20189;-77
2022/01/04 06:53:00;;;;;;;6.60;1.35;;;26.40;99.90;;;;;;5053055;28;20193;-77
2022/01/04 06:55:31;;;;;;;10.15;1.30;;;26.40;99.90;;;;;;5052816;28;20654;-77
2022/01/04 06:58:02;;;;;;;5.18;1.00;;;26.40;99.90;;;;;;5053080;28;20578;-77
2022/01/04 07:00:32;;;;;;;4.70;0.93;;;26.40;99.90;;;;;;5052902;28;20562;-77
2022/01/04 07:03:03;;;;;;;4.57;0.90;;;26.40;99.90;;;;;;5052994;28;20196;-76
2022/01/04 07:05:35;;;;;;;4.78;1.23;;;26.40;99.90;;;;;;5067082;28;20193;-77
2022/01/04 07:08:08;;;;;;;6.50;1.40;;;26.40;99.90;;;;;;5073352;28;20224;-77
2022/01/04 07:10:39;;;;;;;3.75;1.00;;;26.20;99.90;;;;;;5072939;28;20275;-77
2022/01/04 07:13:09;;;;;;;4.75;1.00;;;26.00;99.90;;;;;;5073804;28;20232;-77
2022/01/04 07:15:40;;;;;;;3.17;0.98;;;25.90;99.90;;;;;;5072201;28;20204;-78
2022/01/04 07:18:11;;;;;;;7.53;1.55;;;25.90;99.90;;;;;;5076671;28;20676;-77
2022/01/04 07:20:42;;;;;;;6.88;1.00;;;26.00;99.90;;;;;;5076812;28;20188;-76
2022/01/04 07:23:15;;;;;;;3.72;1.00;;;26.00;99.90;;;;;;5077185;28;20239;-77
2022/01/04 07:25:46;;;;;;;6.15;1.00;;;26.00;99.90;;;;;;5076271;28;20238;-77
2022/01/04 07:28:16;;;;;;;5.53;1.25;;;25.90;99.90;;;;;;5076799;28;20200;-77
2022/01/04 07:30:50;;;;;;;3.70;0.80;;;25.80;99.90;;;;;;5076832;28;20276;-78
2022/01/04 07:33:21;;;;;;;6.50;0.95;;;25.80;99.90;;;;;;5076498;28;20320;-77
2022/01/04 07:35:52;;;;;;;6.35;1.25;;;25.80;99.90;;;;;;5076532;28;20193;-77
2022/01/04 07:38:24;;;;;;;3.55;0.82;;;25.70;99.90;;;;;;5076345;28;20189;-77
2022/01/04 07:40:55;;;;;;;4.20;0.93;;;25.60;99.90;;;;;;5076541;28;20239;-79
2022/01/04 07:43:26;;;;;;;2.70;1.17;;;25.50;99.90;;;;;;5076383;28;20197;-77
2022/01/04 07:45:56;;;;;;;5.13;1.00;;;25.50;99.90;;;;;;5074420;28;20636;-79
2022/01/04 07:48:27;;;;;;;7.03;1.25;;;25.50;99.90;;;;;;5076299;28;20634;-77
2022/01/04 07:50:59;;;;;;;5.13;0.82;;;25.50;99.90;;;;;;5075794;28;20193;-77
2022/01/04 07:53:32;;;;;;;7.03;0.98;;;25.50;99.90;;;;;;5076007;28;20305;-78
2022/01/04 07:56:03;;;;;;;5.15;1.20;;;25.40;99.90;;;;;;5075271;28;20242;-79
2022/01/04 07:58:34;;;;;;;3.92;1.00;;;25.40;99.90;;;;;;5076215;28;20211;-77
2022/01/04 08:01:05;;;;;;;3.90;0.85;;;25.30;99.90;;;;;;5076184;28;20637;-77
2022/01/04 08:03:35;;;;;;;4.47;0.93;;;25.40;99.90;;;;;;5076091;28;20189;-77
2022/01/04 08:06:06;;;;;;;8.63;1.17;;;25.50;99.90;;;;;;5075927;28;20185;-77
2022/01/04 08:08:39;;;;;;;3.80;1.00;;;25.50;99.90;;;;;;5075872;28;20572;-77
2022/01/04 08:11:09;;;;;;;6.82;1.20;;;25.50;99.90;;;;;;5075521;28;20193;-80
2022/01/04 08:13:40;;;;;;;6.60;1.30;;;25.50;99.90;;;;;;5075702;28;20730;-77
2022/01/04 08:16:11;;;;;;;6.22;1.08;;;25.50;99.90;;;;;;5075994;28;20189;-79
2022/01/04 08:18:41;;;;;;;4.93;0.90;;;25.40;99.90;;;;;;5075891;28;20195;-80
2022/01/04 08:21:12;;;;;;;7.03;1.23;;;25.40;99.90;;;;;;5075629;28;20552;-77
2022/01/04 08:23:45;;;;;;;6.30;0.98;;;25.40;99.90;;;;;;5075408;28;20250;-77
2022/01/04 08:26:16;;;;;;;6.80;1.23;;;25.30;99.90;;;;;;5063116;28;20295;-78
2022/01/04 08:28:47;;;;;;;7.53;1.27;;;25.30;99.90;;;;;;5075739;28;20192;-79
2022/01/04 08:31:17;;;;;;;7.30;1.20;;;25.30;99.90;;;;;;5075604;28;20246;-80
2022/01/04 08:33:48;;;;;;;6.72;1.17;;;25.20;99.90;;;;;;5075171;28;20200;-80
2022/01/04 08:36:19;;;;;;;4.10;0.95;;;25.20;99.90;;;;;;5074979;28;20599;-80
2022/01/04 08:38:51;;;;;;;4.03;1.02;;;25.20;99.90;;;;;;5075470;28;20211;-80
2022/01/04 08:41:22;;;;;;;6.47;1.40;;;25.10;99.90;;;;;;5075331;28;20193;-79
2022/01/04 08:43:52;;;;;;;5.85;1.33;;;25.00;99.90;;;;;;5075417;28;20193;-79
2022/01/04 08:46:23;;;;;;;9.13;1.48;;;24.80;99.90;;;;;;5070687;28;20203;-78
2022/01/04 08:48:54;;;;;;;8.60;1.67;;;24.80;99.90;;;;;;5066266;28;20205;-79
2022/01/04 08:51:25;;;;;;;7.47;1.20;;;24.70;99.90;;;;;;5074941;28;20193;-80
2022/01/04 08:53:57;;;;;;;4.63;1.08;;;24.60;99.90;;;;;;5075181;28;20539;-79
2022/01/04 08:56:28;;;;;;;9.43;1.40;;;24.50;99.90;;;;;;5075204;28;20196;-79
2022/01/04 08:58:59;;;;;;;7.05;1.17;;;24.30;99.90;;;;;;5075120;28;20524;-79
2022/01/04 09:01:30;;;;;;;7.20;1.40;;;24.30;99.90;;;;;;5075075;28;20197;-77
2022/01/04 09:04:01;;;;;;;5.20;1.20;;;24.30;99.90;;;;;;5075071;28;20196;-78
2022/01/04 09:06:32;;;;;;;8.35;1.33;;;24.30;99.90;;;;;;5074699;28;20281;-79
2022/01/04 09:09:05;;;;;;;7.95;1.50;;;24.10;99.90;;;;;;5074991;28;20189;-80
2022/01/04 09:11:36;;;;;;;8.82;1.38;;;24.10;99.90;;;;;;5075263;28;20220;-79
2022/01/04 09:14:23;;;;;;;9.93;1.23;;;24.10;99.90;;;;;;5074691;28;20233;-79
2022/01/04 09:19:41;;;;;;;7.40;1.25;;;24.10;99.90;;;;;;5053513;28;20232;-79
2022/01/04 09:22:11;;;;;;;9.60;1.33;;;24.10;99.90;;;;;;5074834;28;20189;-79
2022/01/04 09:24:44;;;;;;;10.07;1.52;;;24.00;99.90;;;;;;5074475;28;20227;-78
2022/01/04 09:27:14;;;;;;;7.88;1.38;;;24.00;99.90;;;;;;5074533;28;20222;-77
2022/01/04 09:29:45;;;;;;;7.38;1.65;;;24.00;99.90;;;;;;5074525;28;20189;-78
2022/01/04 09:32:17;;;;;;;7.60;1.27;;;24.00;99.90;;;;;;5074415;28;20196;-78
2022/01/04 09:34:48;;;;;;;5.10;1.15;;;24.00;99.90;;;;;;5074260;28;20197;-79
2022/01/04 09:37:19;;;;;;;5.32;1.00;;;24.00;99.90;;;;;;5073500;28;20648;-78
2022/01/04 09:39:51;;;;;;;4.03;1.10;;;24.00;99.90;;;;;;5074361;28;20189;-78
2022/01/04 09:42:24;;;;;;;5.60;1.15;;;24.00;99.90;;;;;;5074191;28;20239;-78
2022/01/04 09:44:55;;;;;;;5.20;1.00;;;24.00;99.90;;;;;;5074255;28;20189;-78
2022/01/04 09:47:26;;;;;;;4.57;1.15;;;24.00;99.90;;;;;;5074182;28;20590;-77
2022/01/04 09:49:57;;;;;;;7.45;1.50;;;24.00;99.90;;;;;;5073945;28;20637;-77
2022/01/04 09:52:27;;;;;;;6.53;1.10;;;24.00;99.90;;;;;;5074115;28;20645;-77
2022/01/04 09:55:00;;;;;;;9.02;1.55;;;24.00;99.90;;;;;;5074095;28;20596;-78
2022/01/04 09:57:30;;;;;;;7.35;1.35;;;24.00;99.90;;;;;;5073968;28;20193;-78
2022/01/04 10:00:01;;;;;;;5.28;1.10;;;24.00;99.90;;;;;;5073927;28;20195;-79
2022/01/04 10:02:32;;;;;;;6.25;1.38;;;24.00;99.90;;;;;;5073762;28;20267;-77
2022/01/04 10:05:17;;;;;;;6.90;1.95;;;24.00;99.90;;;;;;5073637;28;20212;-78
2022/01/04 10:07:48;;;;;;;6.03;1.58;;;24.00;99.90;;;;;;5053756;28;20221;-79
2022/01/04 10:10:21;;;;;;;7.60;1.50;;;23.90;99.90;;;;;;5053708;28;20197;-77
2022/01/04 10:12:55;;;;;;;6.95;1.42;;;23.90;99.90;;;;;;5053345;28;20205;-78
2022/01/04 10:15:40;;;;;;;7.32;1.95;;;23.90;99.90;;;;;;5053564;28;20693;-80
2022/01/04 10:18:25;;;;;;;6.18;1.80;;;23.90;99.90;;;;;;5053436;28;20247;-79
2022/01/04 10:21:14;;;;;;;9.60;1.70;;;23.90;99.90;;;;;;5053644;28;20233;-79
2022/01/04 10:23:50;;;;;;;7.45;1.90;;;23.90;99.90;;;;;;5053420;28;20205;-79
2022/01/04 10:26:31;;;;;;;9.07;1.60;;;24.00;99.90;;;;;;5053400;28;20193;-79
2022/01/04 10:29:02;;;;;;;7.30;1.50;;;23.90;99.90;;;;;;5069888;28;20578;-78
2022/01/04 10:31:40;;;;;;;6.95;1.65;;;23.90;99.90;;;;;;5073514;28;20199;-80
2022/01/04 10:34:11;;;;;;;10.68;2.03;;;23.90;99.90;;;;;;5073327;28;20189;-79
2022/01/04 10:36:44;;;;;;;7.93;1.50;;;23.90;99.90;;;;;;5072931;28;20197;-79
2022/01/04 10:39:15;;;;;;;6.28;1.30;;;23.90;99.90;;;;;;5073147;28;20193;-78
2022/01/04 10:41:48;;;;;;;6.22;1.50;;;23.90;99.90;;;;;;5073332;28;20188;-78
2022/01/04 10:44:18;;;;;;;8.73;1.73;;;23.80;99.90;;;;;;5073527;28;20204;-78
2022/01/04 10:46:54;;;;;;;4.80;1.02;;;23.70;99.90;;;;;;5072784;28;20216;-78
2022/01/04 10:49:32;;;;;;;10.25;1.50;;;23.70;99.90;;;;;;5072787;28;20561;-78
2022/01/04 10:52:09;;;;;;;4.15;0.90;;;23.70;99.90;;;;;;5073103;28;20193;-77
2022/01/04 10:54:39;;;;;;;6.90;1.30;;;23.70;99.90;;;;;;5073044;28;20204;-79
2022/01/04 10:57:14;;;;;;;4.93;1.27;;;23.60;99.90;;;;;;5073116;28;20197;-77
2022/01/04 10:59:45;;;;;;;5.13;1.05;;;23.60;99.90;;;;;;5072340;28;20222;-77
2022/01/04 11:02:33;;;;;;;5.95;1.25;;;23.60;99.90;;;;;;5072875;28;20193;-79
2022/01/04 11:05:15;;;;;;;6.60;1.48;;;23.60;99.90;;;;;;5072691;28;20192;-77
2022/01/04 11:08:03;;;;;;;6.15;1.30;;;23.70;99.90;;;;;;5072975;28;20217;-78
2022/01/04 11:10:37;;;;;;;6.13;1.33;;;23.70;99.90;;;;;;5072788;28;20559;-78
2022/01/04 11:13:09;;;;;;;6.18;1.20;;;23.70;99.90;;;;;;5073051;28;20240;-77
2022/01/04 11:15:41;;;;;;;3.83;1.20;;;23.70;99.90;;;;;;5072730;28;20540;-79
2022/01/04 11:18:13;;;;;;;10.45;1.48;;;23.70;99.90;;;;;;5072945;28;20185;-79
2022/01/04 11:20:44;;;;;;;6.32;1.20;;;23.70;99.90;;;;;;5072875;28;20204;-79
2022/01/04 11:23:16;;;;;;;5.00;1.27;;;23.70;99.90;;;;;;5072937;28;20189;-79
2022/01/04 11:25:50;;;;;;;10.13;1.60;;;23.70;99.90;;;;;;5072666;28;20224;-77
2022/01/04 11:28:24;;;;;;;7.72;1.40;;;23.70;99.90;;;;;;5072907;28;20223;-78
2022/01/04 11:31:26;;;;;;;6.88;1.30;;;23.70;99.90;;;;;;5072805;28;20620;-77
2022/01/04 11:34:11;;;;;;;6.70;1.33;;;23.70;99.90;;;;;;5072692;28;20226;-79
2022/01/04 11:36:44;;;;;;;7.07;1.20;;;23.60;99.90;;;;;;5072284;28;20189;-76
2022/01/04 11:39:35;;;;;;;8.50;1.30;;;23.60;99.90;;;;;;5072740;28;20193;-79
2022/01/04 11:42:08;;;;;;;3.38;1.00;;;23.50;99.90;;;;;;5072763;28;20190;-77
2022/01/04 11:44:47;;;;;;;7.32;1.55;;;23.50;99.90;;;;;;5072481;28;20199;-77
2022/01/04 11:47:19;;;;;;;4.40;1.20;;;23.50;99.90;;;;;;5072533;28;20280;-77
2022/01/04 11:50:13;;;;;;;6.15;1.08;;;23.40;99.90;;;;;;5072405;28;20189;-79
2022/01/04 11:52:46;;;;;;;6.25;1.10;;;23.40;99.90;;;;;;5072389;28;20193;-77
2022/01/04 11:55:26;;;;;;;6.40;1.30;;;23.40;99.90;;;;;;5072514;28;20193;-77
2022/01/04 11:57:59;;;;;;;4.38;1.10;;;23.40;99.90;;;;;;5072585;28;20193;-77
2022/01/04 12:00:33;;;;;;;4.75;1.05;;;23.40;99.90;;;;;;5075329;28;20807;-77
2022/01/04 12:03:12;;;;;;;4.63;1.17;;;23.40;99.90;;;;;;5076062;28;20530;-79
2022/01/04 12:06:02;;;;;;;4.32;1.23;;;23.40;99.90;;;;;;5075089;28;20195;-79
2022/01/04 12:08:37;;;;;;;3.95;1.15;;;23.40;99.90;;;;;;5075880;28;20271;-77
2022/01/04 12:11:23;;;;;;;3.35;1.10;;;23.30;99.90;;;;;;5075988;28;20675;-78
2022/01/04 12:13:55;;;;;;;4.65;0.95;;;23.30;99.90;;;;;;5075447;28;20232;-78
2022/01/04 12:16:38;;;;;;;5.75;1.40;;;23.30;99.90;;;;;;5075824;28;20185;-79
2022/01/04 12:19:09;;;;;;;4.93;1.10;;;23.30;99.90;;;;;;5076224;28;20554;-79
2022/01/04 12:21:49;;;;;;;7.53;1.35;;;23.30;99.90;;;;;;5075877;28;20695;-79
2022/01/04 12:24:26;;;;;;;3.75;1.23;;;23.30;99.90;;;;;;5075725;28;20264;-79
2022/01/04 12:27:20;;;;;;;4.63;1.08;;;23.30;99.90;;;;;;5061903;28;20738;-79
2022/01/04 12:29:51;;;;;;;4.75;1.38;;;23.30;99.90;;;;;;5050236;28;20205;-79
2022/01/04 12:32:26;;;;;;;5.70;1.17;;;23.30;99.90;;;;;;5055492;28;20645;-77
2022/01/04 12:35:03;;;;;;;4.57;1.30;;;23.20;99.90;;;;;;5067671;28;20722;-78
2022/01/04 12:37:39;;;;;;;4.80;1.10;;;23.20;99.90;;;;;;5075475;28;20535;-76
2022/01/04 12:40:10;;;;;;;4.10;1.48;;;23.20;99.90;;;;;;5075539;28;20220;-76
2022/01/04 12:42:44;;;;;;;5.95;1.10;;;23.20;99.90;;;;;;5074831;28;20574;-76
2022/01/04 12:45:17;;;;;;;7.63;1.40;;;23.20;99.90;;;;;;5075379;28;20583;-76
2022/01/04 12:47:55;;;;;;;4.60;1.10;;;23.20;99.90;;;;;;5075211;28;20225;-76
2022/01/04 12:50:27;;;;;;;5.43;1.20;;;23.20;99.90;;;;;;5075207;28;20185;-76
2022/01/04 12:52:59;;;;;;;5.82;1.30;;;23.30;99.90;;;;;;5075371;28;20189;-77
2022/01/04 12:55:29;;;;;;;4.90;1.27;;;23.30;99.90;;;;;;5075046;28;20194;-76
2022/01/04 12:58:00;;;;;;;5.03;1.33;;;23.30;99.90;;;;;;5075302;28;20667;-76
2022/01/04 13:00:31;;;;;;;7.03;1.38;;;23.30;99.90;;;;;;5075126;28;20200;-76
2022/01/04 13:03:03;;;;;;;5.50;1.52;;;23.30;99.90;;;;;;5075333;28;20196;-76
2022/01/04 13:05:35;;;;;;;6.13;1.50;;;23.30;99.90;;;;;;5074627;28;20189;-76
2022/01/04 13:08:10;;;;;;;7.20;1.63;;;23.30;99.90;;;;;;5074740;28;20213;-79
2022/01/04 13:10:41;;;;;;;6.07;1.40;;;23.20;99.90;;;;;;5073841;28;20238;-79
2022/01/04 13:13:12;;;;;;;6.80;1.98;;;23.30;99.90;;;;;;5074358;28;20244;-77
2022/01/04 13:15:43;;;;;;;8.55;1.77;;;23.30;99.90;;;;;;5074320;28;20226;-77
2022/01/04 13:18:27;;;;;;;8.65;1.75;;;23.30;99.90;;;;;;5074697;28;20254;-77
2022/01/04 13:21:08;;;;;;;6.28;1.77;;;23.30;99.90;;;;;;5074694;28;20574;-76